sensor_id;sensor_type;location;lat;lon;timestamp;pressure;altitude;pressure_sealevel;temperature;humidity
46394;BME280;32099;53.588;10.176;2023-02-23T00:00:24;100852.28;;;8.08;87.54
46394;BME280;32099;53.588;10.176;2023-02-23T00:02:56;100853.47;;;8.06;87.21
46394;BME280;32099;53.588;10.176;2023-02-23T00:05:25;100848.34;;;8.02;87.02
46394;BME280;32099;53.588;10.176;2023-02-23T00:07:51;100840.53;;;7.99;86.83
46394;BME280;32099;53.588;10.176;2023-02-23T00:10:18;100846.31;;;7.96;86.95
46394;BME280;32099;53.588;10.176;2023-02-23T00:12:45;100842.19;;;7.92;87.12
46394;BME280;32099;53.588;10.176;2023-02-23T00:15:11;100850.84;;;7.87;87.34
46394;BME280;32099;53.588;10.176;2023-02-23T00:17:37;100842.16;;;7.84;87.54
46394;BME280;32099;53.588;10.176;2023-02-23T00:20:05;100838.75;;;7.82;88.08
46394;BME280;32099;53.588;10.176;2023-02-23T00:22:35;100842.97;;;7.76;88.01
46394;BME280;32099;53.588;10.176;2023-02-23T00:25:01;100843.16;;;7.75;87.89
46394;BME280;32099;53.588;10.176;2023-02-23T00:27:26;100838.03;;;7.71;87.73
46394;BME280;32099;53.588;10.176;2023-02-23T00:29:51;100841.94;;;7.69;87.81
46394;BME280;32099;53.588;10.176;2023-02-23T00:32:17;100836.34;;;7.70;87.70
46394;BME280;32099;53.588;10.176;2023-02-23T00:34:44;100838.03;;;7.71;87.48
46394;BME280;32099;53.588;10.176;2023-02-23T00:37:13;100834.63;;;7.69;87.60
46394;BME280;32099;53.588;10.176;2023-02-23T00:39:38;100836.50;;;7.69;87.64
46394;BME280;32099;53.588;10.176;2023-02-23T00:42:04;100842.94;;;7.68;87.99
46394;BME280;32099;53.588;10.176;2023-02-23T00:44:30;100834.09;;;7.66;88.42
46394;BME280;32099;53.588;10.176;2023-02-23T00:46:59;100833.59;;;7.62;88.10
46394;BME280;32099;53.588;10.176;2023-02-23T00:49:25;100833.22;;;7.57;88.59
46394;BME280;32099;53.588;10.176;2023-02-23T00:51:51;100830.66;;;7.55;88.78
46394;BME280;32099;53.588;10.176;2023-02-23T00:54:17;100827.94;;;7.55;89.10
46394;BME280;32099;53.588;10.176;2023-02-23T00:56:43;100832.38;;;7.56;89.20
46394;BME280;32099;53.588;10.176;2023-02-23T00:59:09;100831.34;;;7.57;89.05
46394;BME280;32099;53.588;10.176;2023-02-23T01:01:35;100830.19;;;7.60;89.26
46394;BME280;32099;53.588;10.176;2023-02-23T01:04:01;100833.59;;;7.62;88.82
46394;BME280;32099;53.588;10.176;2023-02-23T01:06:27;100837.31;;;7.61;88.95
46394;BME280;32099;53.588;10.176;2023-02-23T01:08:52;100834.44;;;7.63;89.22
46394;BME280;32099;53.588;10.176;2023-02-23T01:11:21;100834.44;;;7.63;89.03
46394;BME280;32099;53.588;10.176;2023-02-23T01:13:50;100838.00;;;7.63;89.44
46394;BME280;32099;53.588;10.176;2023-02-23T01:16:18;100839.53;;;7.66;90.10
46394;BME280;32099;53.588;10.176;2023-02-23T01:18:45;100834.63;;;7.69;89.86
46394;BME280;32099;53.588;10.176;2023-02-23T01:21:20;100832.59;;;7.71;90.85
46394;BME280;32099;53.588;10.176;2023-02-23T01:23:47;100829.41;;;7.76;91.13
46394;BME280;32099;53.588;10.176;2023-02-23T01:26:20;100828.22;;;7.79;90.50
46394;BME280;32099;53.588;10.176;2023-02-23T01:28:51;100833.34;;;7.82;90.26
46394;BME280;32099;53.588;10.176;2023-02-23T01:31:18;100832.00;;;7.86;89.56
46394;BME280;32099;53.588;10.176;2023-02-23T01:33:44;100831.50;;;7.91;89.46
46394;BME280;32099;53.588;10.176;2023-02-23T01:36:10;100833.22;;;7.92;90.35
46394;BME280;32099;53.588;10.176;2023-02-23T01:38:35;100831.34;;;7.92;90.08
46394;BME280;32099;53.588;10.176;2023-02-23T01:41:00;100829.50;;;7.93;89.99
46394;BME280;32099;53.588;10.176;2023-02-23T01:43:26;100823.03;;;7.94;90.30
46394;BME280;32099;53.588;10.176;2023-02-23T01:45:52;100829.84;;;7.98;90.25
46394;BME280;32099;53.588;10.176;2023-02-23T01:48:23;100821.84;;;7.96;91.23
46394;BME280;32099;53.588;10.176;2023-02-23T01:51:03;100830.16;;;7.95;90.39
46394;BME280;32099;53.588;10.176;2023-02-23T01:53:34;100828.13;;;7.97;90.05
46394;BME280;32099;53.588;10.176;2023-02-23T01:56:07;100821.84;;;7.96;89.89
46394;BME280;32099;53.588;10.176;2023-02-23T01:58:35;100816.25;;;7.98;89.90
46394;BME280;32099;53.588;10.176;2023-02-23T02:01:03;100813.41;;;7.99;90.33
46394;BME280;32099;53.588;10.176;2023-02-23T02:03:34;100815.41;;;7.97;90.40
46394;BME280;32099;53.588;10.176;2023-02-23T02:06:03;100817.44;;;7.95;90.23
46394;BME280;32099;53.588;10.176;2023-02-23T02:08:31;100821.00;;;7.96;90.30
46394;BME280;32099;53.588;10.176;2023-02-23T02:10:57;100814.03;;;7.93;90.25
46394;BME280;32099;53.588;10.176;2023-02-23T02:13:27;100811.84;;;7.97;90.06
46394;BME280;32099;53.588;10.176;2023-02-23T02:16:02;100808.63;;;8.01;89.57
46394;BME280;32099;53.588;10.176;2023-02-23T02:18:41;100809.63;;;8.00;89.55
46394;BME280;32099;53.588;10.176;2023-02-23T02:29:59;100806.78;;;8.02;89.88
46394;BME280;32099;53.588;10.176;2023-02-23T02:38:52;100811.34;;;8.01;90.20
46394;BME280;32099;53.588;10.176;2023-02-23T02:47:28;100806.09;;;8.00;90.26
46394;BME280;32099;53.588;10.176;2023-02-23T02:50:08;100806.78;;;8.02;90.01
46394;BME280;32099;53.588;10.176;2023-02-23T02:52:38;100809.50;;;8.02;90.27
46394;BME280;32099;53.588;10.176;2023-02-23T02:55:11;100809.31;;;8.03;89.84
46394;BME280;32099;53.588;10.176;2023-02-23T02:57:40;100802.03;;;8.04;89.95
46394;BME280;32099;53.588;10.176;2023-02-23T03:00:12;100801.84;;;8.06;90.00
46394;BME280;32099;53.588;10.176;2023-02-23T03:03:04;100799.97;;;8.06;89.71
46394;BME280;32099;53.588;10.176;2023-02-23T03:05:48;100800.84;;;8.07;90.02
46394;BME280;32099;53.588;10.176;2023-02-23T03:08:40;100804.41;;;8.07;89.58
46394;BME280;32099;53.588;10.176;2023-02-23T03:11:35;100795.22;;;8.08;89.54
46394;BME280;32099;53.588;10.176;2023-02-23T03:17:41;100801.16;;;8.03;89.53
46394;BME280;32099;53.588;10.176;2023-02-23T03:20:33;100802.19;;;8.02;89.53
46394;BME280;32099;53.588;10.176;2023-02-23T03:26:20;100801.31;;;7.94;89.44
46394;BME280;32099;53.588;10.176;2023-02-23T03:32:18;100807.91;;;7.91;89.10
46394;BME280;32099;53.588;10.176;2023-02-23T03:35:34;100807.56;;;7.86;89.71
46394;BME280;32099;53.588;10.176;2023-02-23T03:38:33;100809.09;;;7.88;89.37
46394;BME280;32099;53.588;10.176;2023-02-23T03:41:29;100805.06;;;7.93;89.23
46394;BME280;32099;53.588;10.176;2023-02-23T03:44:17;100794.84;;;7.95;88.81
46394;BME280;32099;53.588;10.176;2023-02-23T03:47:09;100803.00;;;7.95;89.28
46394;BME280;32099;53.588;10.176;2023-02-23T03:49:57;100803.69;;;7.97;90.26
46394;BME280;32099;53.588;10.176;2023-02-23T03:52:45;100800.28;;;7.95;91.44
46394;BME280;32099;53.588;10.176;2023-02-23T03:55:36;100800.28;;;7.95;90.52
46394;BME280;32099;53.588;10.176;2023-02-23T03:58:27;100803.19;;;8.01;90.35
46394;BME280;32099;53.588;10.176;2023-02-23T04:01:16;100804.56;;;8.06;90.92
46394;BME280;32099;53.588;10.176;2023-02-23T04:04:04;100796.06;;;8.00;91.60
46394;BME280;32099;53.588;10.176;2023-02-23T04:06:52;100799.44;;;7.94;92.50
46394;BME280;32099;53.588;10.176;2023-02-23T04:09:40;100801.78;;;7.89;92.99
46394;BME280;32099;53.588;10.176;2023-02-23T04:12:32;100793.81;;;7.87;93.29
46394;BME280;32099;53.588;10.176;2023-02-23T04:17:52;100792.47;;;7.92;92.42
46394;BME280;32099;53.588;10.176;2023-02-23T04:20:18;100793.84;;;7.96;92.50
46394;BME280;32099;53.588;10.176;2023-02-23T04:22:43;100793.34;;;8.00;92.48
46394;BME280;32099;53.588;10.176;2023-02-23T04:25:09;100798.13;;;8.07;91.83
46394;BME280;32099;53.588;10.176;2023-02-23T04:27:35;100800.16;;;8.13;91.25
46394;BME280;32099;53.588;10.176;2023-02-23T04:30:01;100804.44;;;8.15;91.46
46394;BME280;32099;53.588;10.176;2023-02-23T04:32:27;100811.56;;;8.16;91.42
46394;BME280;32099;53.588;10.176;2023-02-23T04:34:53;100809.53;;;8.18;90.99
46394;BME280;32099;53.588;10.176;2023-02-23T04:37:18;100801.75;;;8.24;90.70
46394;BME280;32099;53.588;10.176;2023-02-23T04:39:44;100805.47;;;8.31;90.45
46394;BME280;32099;53.588;10.176;2023-02-23T04:42:13;100810.41;;;8.36;90.15
46394;BME280;32099;53.588;10.176;2023-02-23T04:44:39;100812.47;;;8.42;89.82
46394;BME280;32099;53.588;10.176;2023-02-23T04:47:04;100810.25;;;8.45;89.42
46394;BME280;32099;53.588;10.176;2023-02-23T04:49:29;100802.50;;;8.51;89.50
46394;BME280;32099;53.588;10.176;2023-02-23T04:51:55;100804.88;;;8.54;88.97
46394;BME280;32099;53.588;10.176;2023-02-23T04:54:20;100803.84;;;8.55;88.98
46394;BME280;32099;53.588;10.176;2023-02-23T04:56:45;100801.31;;;8.53;88.98
46394;BME280;32099;53.588;10.176;2023-02-23T04:59:11;100799.41;;;8.54;88.63
46394;BME280;32099;53.588;10.176;2023-02-23T05:01:36;100800.63;;;8.51;89.13
46394;BME280;32099;53.588;10.176;2023-02-23T05:04:01;100794.34;;;8.51;88.87
46394;BME280;32099;53.588;10.176;2023-02-23T05:06:26;100792.66;;;8.49;89.16
46394;BME280;32099;53.588;10.176;2023-02-23T05:08:52;100800.81;;;8.49;89.25
46394;BME280;32099;53.588;10.176;2023-02-23T05:11:17;100795.66;;;8.46;88.98
46394;BME280;32099;53.588;10.176;2023-02-23T05:13:42;100800.94;;;8.48;88.98
46394;BME280;32099;53.588;10.176;2023-02-23T05:16:08;100795.88;;;8.53;88.54
46394;BME280;32099;53.588;10.176;2023-02-23T05:18:33;100794.34;;;8.59;88.67
46394;BME280;32099;53.588;10.176;2023-02-23T05:21:02;100800.47;;;8.61;88.46
46394;BME280;32099;53.588;10.176;2023-02-23T05:23:30;100801.31;;;8.61;88.17
46394;BME280;32099;53.588;10.176;2023-02-23T05:26:00;100797.38;;;8.64;88.37
46394;BME280;32099;53.588;10.176;2023-02-23T05:28:27;100798.75;;;8.60;88.32
46394;BME280;32099;53.588;10.176;2023-02-23T05:30:53;100804.53;;;8.57;88.48
46394;BME280;32099;53.588;10.176;2023-02-23T05:33:18;100810.16;;;8.63;88.00
46394;BME280;32099;53.588;10.176;2023-02-23T05:35:45;100803.50;;;8.66;87.88
46394;BME280;32099;53.588;10.176;2023-02-23T05:38:11;100801.66;;;8.67;87.87
46394;BME280;32099;53.588;10.176;2023-02-23T05:40:36;100800.66;;;8.68;87.82
46394;BME280;32099;53.588;10.176;2023-02-23T05:43:02;100798.59;;;8.70;88.03
46394;BME280;32099;53.588;10.176;2023-02-23T05:45:27;100803.50;;;8.66;88.17
46394;BME280;32099;53.588;10.176;2023-02-23T05:47:52;100803.84;;;8.63;87.82
46394;BME280;32099;53.588;10.176;2023-02-23T05:50:18;100799.59;;;8.60;88.38
46394;BME280;32099;53.588;10.176;2023-02-23T05:52:43;100802.50;;;8.59;88.05
46394;BME280;32099;53.588;10.176;2023-02-23T05:55:09;100809.78;;;8.58;88.29
46394;BME280;32099;53.588;10.176;2023-02-23T05:57:35;100805.22;;;8.59;88.19
46394;BME280;32099;53.588;10.176;2023-02-23T06:00:01;100803.84;;;8.63;88.34
46394;BME280;32099;53.588;10.176;2023-02-23T06:02:27;100804.72;;;8.63;87.97
46394;BME280;32099;53.588;10.176;2023-02-23T06:04:52;100808.44;;;8.62;88.10
46394;BME280;32099;53.588;10.176;2023-02-23T06:07:19;100810.97;;;8.64;88.21
46394;BME280;32099;53.588;10.176;2023-02-23T06:09:45;100819.00;;;8.66;87.92
46394;BME280;32099;53.588;10.176;2023-02-23T06:12:10;100818.13;;;8.65;87.95
46394;BME280;32099;53.588;10.176;2023-02-23T06:14:35;100814.38;;;8.66;88.20
46394;BME280;32099;53.588;10.176;2023-02-23T06:17:00;100816.97;;;8.68;87.92
46394;BME280;32099;53.588;10.176;2023-02-23T06:19:26;100814.06;;;8.69;87.72
46394;BME280;32099;53.588;10.176;2023-02-23T06:21:51;100829.00;;;8.65;87.80
46394;BME280;32099;53.588;10.176;2023-02-23T06:24:17;100829.88;;;8.66;87.97
46394;BME280;32099;53.588;10.176;2023-02-23T06:26:43;100822.88;;;8.63;88.10
46394;BME280;32099;53.588;10.176;2023-02-23T06:29:08;100820.84;;;8.65;87.98
46394;BME280;32099;53.588;10.176;2023-02-23T06:31:35;100823.56;;;8.65;88.32
46394;BME280;32099;53.588;10.176;2023-02-23T06:34:01;100831.72;;;8.65;88.18
46394;BME280;32099;53.588;10.176;2023-02-23T06:36:26;100825.44;;;8.64;88.66
46394;BME280;32099;53.588;10.176;2023-02-23T06:38:54;100833.41;;;8.66;88.27
46394;BME280;32099;53.588;10.176;2023-02-23T06:41:23;100834.78;;;8.70;87.84
46394;BME280;32099;53.588;10.176;2023-02-23T06:43:49;100838.34;;;8.71;87.94
46394;BME280;32099;53.588;10.176;2023-02-23T06:46:16;100840.75;;;8.74;87.95
46394;BME280;32099;53.588;10.176;2023-02-23T06:48:42;100840.22;;;8.70;87.98
46394;BME280;32099;53.588;10.176;2023-02-23T06:51:07;100842.09;;;8.70;88.25
46394;BME280;32099;53.588;10.176;2023-02-23T06:53:32;100836.50;;;8.71;88.26
46394;BME280;32099;53.588;10.176;2023-02-23T06:55:58;100843.63;;;8.72;88.31
46394;BME280;32099;53.588;10.176;2023-02-23T06:58:24;100841.75;;;8.73;88.11
46394;BME280;32099;53.588;10.176;2023-02-23T07:00:49;100845.34;;;8.73;88.04
46394;BME280;32099;53.588;10.176;2023-02-23T07:03:15;100847.88;;;8.75;88.10
46394;BME280;32099;53.588;10.176;2023-02-23T07:05:40;100857.56;;;8.77;87.70
46394;BME280;32099;53.588;10.176;2023-02-23T07:08:05;100852.97;;;8.78;87.75
46394;BME280;32099;53.588;10.176;2023-02-23T07:10:31;100861.16;;;8.78;87.66
46394;BME280;32099;53.588;10.176;2023-02-23T07:12:57;100849.41;;;8.77;87.40
46394;BME280;32099;53.588;10.176;2023-02-23T07:15:23;100857.41;;;8.79;87.77
46394;BME280;32099;53.588;10.176;2023-02-23T07:17:48;100864.69;;;8.78;87.57
46394;BME280;32099;53.588;10.176;2023-02-23T07:20:16;100865.72;;;8.77;87.58
46394;BME280;32099;53.588;10.176;2023-02-23T07:22:42;100871.34;;;8.76;87.68
46394;BME280;32099;53.588;10.176;2023-02-23T07:25:07;100868.63;;;8.76;87.75
46394;BME280;32099;53.588;10.176;2023-02-23T07:27:33;100870.31;;;8.77;87.73
46394;BME280;32099;53.588;10.176;2023-02-23T07:29:59;100879.50;;;8.76;87.88
46394;BME280;32099;53.588;10.176;2023-02-23T07:32:26;100874.19;;;8.74;87.63
46394;BME280;32099;53.588;10.176;2023-02-23T07:34:52;100885.94;;;8.75;87.82
46394;BME280;32099;53.588;10.176;2023-02-23T07:37:17;100883.41;;;8.73;87.99
46394;BME280;32099;53.588;10.176;2023-02-23T07:39:42;100878.81;;;8.74;87.88
46394;BME280;32099;53.588;10.176;2023-02-23T07:42:08;100887.78;;;8.74;87.89
46394;BME280;32099;53.588;10.176;2023-02-23T07:44:33;100884.25;;;8.74;87.79
46394;BME280;32099;53.588;10.176;2023-02-23T07:46:58;100891.19;;;8.76;87.87
46394;BME280;32099;53.588;10.176;2023-02-23T07:49:24;100883.91;;;8.77;87.96
46394;BME280;32099;53.588;10.176;2023-02-23T07:51:49;100889.00;;;8.80;87.74
46394;BME280;32099;53.588;10.176;2023-02-23T07:54:14;100890.22;;;8.86;87.77
46394;BME280;32099;53.588;10.176;2023-02-23T07:56:40;100889.16;;;8.87;87.79
46394;BME280;32099;53.588;10.176;2023-02-23T07:59:05;100888.84;;;8.90;88.10
46394;BME280;32099;53.588;10.176;2023-02-23T08:01:31;100895.16;;;8.90;88.34
46394;BME280;32099;53.588;10.176;2023-02-23T08:03:56;100898.53;;;8.92;88.11
46394;BME280;32099;53.588;10.176;2023-02-23T08:06:21;100900.91;;;8.95;88.40
46394;BME280;32099;53.588;10.176;2023-02-23T08:08:47;100897.69;;;8.92;88.27
46394;BME280;32099;53.588;10.176;2023-02-23T08:11:12;100903.81;;;8.94;88.12
46394;BME280;32099;53.588;10.176;2023-02-23T08:13:37;100905.34;;;8.97;88.13
46394;BME280;32099;53.588;10.176;2023-02-23T08:16:03;100911.13;;;9.02;87.86
46394;BME280;32099;53.588;10.176;2023-02-23T08:18:28;100911.66;;;9.05;88.37
46394;BME280;32099;53.588;10.176;2023-02-23T08:21:00;100912.47;;;9.06;88.18
46394;BME280;32099;53.588;10.176;2023-02-23T08:23:33;100903.81;;;9.10;88.27
46394;BME280;32099;53.588;10.176;2023-02-23T08:25:59;100911.63;;;9.14;88.14
46394;BME280;32099;53.588;10.176;2023-02-23T08:28:25;100918.09;;;9.13;88.06
46394;BME280;32099;53.588;10.176;2023-02-23T08:30:52;100911.97;;;9.10;88.23
46394;BME280;32099;53.588;10.176;2023-02-23T08:33:17;100910.13;;;9.11;88.29
46394;BME280;32099;53.588;10.176;2023-02-23T08:35:42;100911.97;;;9.10;88.60
46394;BME280;32099;53.588;10.176;2023-02-23T08:38:09;100912.47;;;9.06;88.80
46394;BME280;32099;53.588;10.176;2023-02-23T08:40:34;100912.16;;;9.01;88.85
46394;BME280;32099;53.588;10.176;2023-02-23T08:42:59;100908.94;;;8.97;89.17
46394;BME280;32099;53.588;10.176;2023-02-23T08:45:24;100909.06;;;8.95;88.72
46394;BME280;32099;53.588;10.176;2023-02-23T08:47:53;100907.56;;;8.93;88.87
46394;BME280;32099;53.588;10.176;2023-02-23T08:50:18;100908.38;;;8.93;89.12
46394;BME280;32099;53.588;10.176;2023-02-23T08:52:44;100911.47;;;8.99;88.89
46394;BME280;32099;53.588;10.176;2023-02-23T08:55:09;100914.00;;;9.00;88.84
46394;BME280;32099;53.588;10.176;2023-02-23T08:57:35;100914.50;;;8.95;88.67
46394;BME280;32099;53.588;10.176;2023-02-23T09:00:01;100912.13;;;8.92;88.57
46394;BME280;32099;53.588;10.176;2023-02-23T09:02:26;100909.25;;;8.94;88.93
46394;BME280;32099;53.588;10.176;2023-02-23T09:04:52;100910.09;;;8.94;88.85
46394;BME280;32099;53.588;10.176;2023-02-23T09:07:19;100913.16;;;9.00;89.12
46394;BME280;32099;53.588;10.176;2023-02-23T09:09:51;100914.00;;;9.00;89.23
46394;BME280;32099;53.588;10.176;2023-02-23T09:12:18;100910.44;;;9.08;88.73
46394;BME280;32099;53.588;10.176;2023-02-23T09:14:43;100909.94;;;9.13;88.72
46394;BME280;32099;53.588;10.176;2023-02-23T09:17:08;100915.22;;;9.14;88.88
46394;BME280;32099;53.588;10.176;2023-02-23T09:19:34;100921.16;;;9.09;88.49
46394;BME280;32099;53.588;10.176;2023-02-23T09:21:59;100919.47;;;9.08;88.70
46394;BME280;32099;53.588;10.176;2023-02-23T09:24:24;100915.38;;;9.04;88.06
46394;BME280;32099;53.588;10.176;2023-02-23T09:26:50;100912.81;;;8.94;88.30
46394;BME280;32099;53.588;10.176;2023-02-23T09:29:17;100913.81;;;8.93;88.60
46394;BME280;32099;53.588;10.176;2023-02-23T09:31:42;100917.75;;;8.99;88.93
46394;BME280;32099;53.588;10.176;2023-02-23T09:34:08;100911.47;;;8.99;89.19
46394;BME280;32099;53.588;10.176;2023-02-23T09:36:34;100915.56;;;9.03;88.70
46394;BME280;32099;53.588;10.176;2023-02-23T09:38:59;100920.63;;;9.06;88.92
46394;BME280;32099;53.588;10.176;2023-02-23T09:46:43;100915.53;;;8.94;88.33
46394;BME280;32099;53.588;10.176;2023-02-23T09:49:15;100923.00;;;8.92;88.46
46394;BME280;32099;53.588;10.176;2023-02-23T09:51:45;100924.19;;;8.90;89.39
46394;BME280;32099;53.588;10.176;2023-02-23T09:54:17;100929.31;;;8.85;88.59
46394;BME280;32099;53.588;10.176;2023-02-23T09:56:47;100932.84;;;8.77;89.14
46394;BME280;32099;53.588;10.176;2023-02-23T09:59:17;100934.56;;;8.78;89.08
46394;BME280;32099;53.588;10.176;2023-02-23T10:04:47;100940.84;;;8.78;89.01
46394;BME280;32099;53.588;10.176;2023-02-23T10:07:20;100935.41;;;8.87;88.83
46394;BME280;32099;53.588;10.176;2023-02-23T10:12:42;100944.25;;;8.89;88.17
46394;BME280;32099;53.588;10.176;2023-02-23T10:21:30;100951.00;;;8.76;88.65
46394;BME280;32099;53.588;10.176;2023-02-23T10:24:01;100950.00;;;8.69;88.52
46394;BME280;32099;53.588;10.176;2023-02-23T10:26:37;100956.06;;;8.63;88.11
46394;BME280;32099;53.588;10.176;2023-02-23T10:29:14;100948.28;;;8.60;88.66
46394;BME280;32099;53.588;10.176;2023-02-23T10:31:46;100946.06;;;8.63;88.93
46394;BME280;32099;53.588;10.176;2023-02-23T10:34:15;100948.97;;;8.70;88.41
46394;BME280;32099;53.588;10.176;2023-02-23T10:36:43;100946.78;;;8.74;87.45
46394;BME280;32099;53.588;10.176;2023-02-23T10:39:14;100950.69;;;8.79;87.72
46394;BME280;32099;53.588;10.176;2023-02-23T10:41:39;100949.88;;;8.87;88.01
46394;BME280;32099;53.588;10.176;2023-02-23T10:44:09;100959.22;;;8.93;87.78
46394;BME280;32099;53.588;10.176;2023-02-23T10:46:41;100951.56;;;8.97;87.25
46394;BME280;32099;53.588;10.176;2023-02-23T10:49:09;100953.09;;;8.99;86.86
46394;BME280;32099;53.588;10.176;2023-02-23T10:51:43;100949.72;;;8.97;86.82
46394;BME280;32099;53.588;10.176;2023-02-23T10:54:32;100952.44;;;8.97;87.13
46394;BME280;32099;53.588;10.176;2023-02-23T10:57:08;100953.59;;;8.94;86.51
46394;BME280;32099;53.588;10.176;2023-02-23T10:59:38;100956.50;;;8.93;87.04
46394;BME280;32099;53.588;10.176;2023-02-23T11:02:21;100964.47;;;8.94;86.65
46394;BME280;32099;53.588;10.176;2023-02-23T11:04:52;100956.69;;;8.91;86.90
46394;BME280;32099;53.588;10.176;2023-02-23T11:07:21;100954.44;;;8.87;86.56
46394;BME280;32099;53.588;10.176;2023-02-23T11:09:50;100958.84;;;8.79;86.98
46394;BME280;32099;53.588;10.176;2023-02-23T11:12:18;100965.47;;;8.77;86.90
46394;BME280;32099;53.588;10.176;2023-02-23T11:14:49;100957.16;;;8.78;86.87
46394;BME280;32099;53.588;10.176;2023-02-23T11:17:29;100956.47;;;8.76;86.47
46394;BME280;32099;53.588;10.176;2023-02-23T11:22:46;100943.88;;;8.75;86.74
46394;BME280;32099;53.588;10.176;2023-02-23T11:25:14;100946.78;;;8.74;86.78
46394;BME280;32099;53.588;10.176;2023-02-23T11:27:46;100935.91;;;8.74;86.79
46394;BME280;32099;53.588;10.176;2023-02-23T11:30:15;100936.06;;;8.72;87.10
46394;BME280;32099;53.588;10.176;2023-02-23T11:32:45;100934.56;;;8.86;88.07
46394;BME280;32099;53.588;10.176;2023-02-23T11:37:45;100937.66;;;9.16;85.61
46394;BME280;32099;53.588;10.176;2023-02-23T11:43:06;100931.03;;;9.35;85.48
46394;BME280;32099;53.588;10.176;2023-02-23T11:45:38;100932.91;;;9.43;85.04
46394;BME280;32099;53.588;10.176;2023-02-23T11:50:49;100933.94;;;9.34;83.76
46394;BME280;32099;53.588;10.176;2023-02-23T11:53:18;100930.69;;;9.30;83.02
46394;BME280;32099;53.588;10.176;2023-02-23T11:55:52;100929.34;;;9.26;83.20
46394;BME280;32099;53.588;10.176;2023-02-23T11:58:28;100929.50;;;9.24;83.11
46394;BME280;32099;53.588;10.176;2023-02-23T12:01:03;100926.25;;;9.21;83.98
46394;BME280;32099;53.588;10.176;2023-02-23T12:03:44;100927.31;;;9.20;83.64
46394;BME280;32099;53.588;10.176;2023-02-23T12:06:26;100930.53;;;9.23;84.16
46394;BME280;32099;53.588;10.176;2023-02-23T12:08:56;100919.97;;;9.29;83.89
46394;BME280;32099;53.588;10.176;2023-02-23T12:11:29;100927.81;;;9.32;84.03
46394;BME280;32099;53.588;10.176;2023-02-23T12:14:01;100915.38;;;9.37;83.99
46394;BME280;32099;53.588;10.176;2023-02-23T12:16:45;100920.13;;;9.44;83.82
46394;BME280;32099;53.588;10.176;2023-02-23T12:19:33;100919.47;;;9.50;83.22
46394;BME280;32099;53.588;10.176;2023-02-23T12:22:09;100919.09;;;9.45;82.41
46394;BME280;32099;53.588;10.176;2023-02-23T12:24:49;100917.25;;;9.37;83.05
46394;BME280;32099;53.588;10.176;2023-02-23T12:27:42;100920.84;;;9.29;82.77
46394;BME280;32099;53.588;10.176;2023-02-23T12:30:16;100922.88;;;9.27;83.30
46394;BME280;32099;53.588;10.176;2023-02-23T12:35:23;100931.22;;;9.25;83.24
46394;BME280;32099;53.588;10.176;2023-02-23T12:40:38;100931.69;;;9.21;82.69
46394;BME280;32099;53.588;10.176;2023-02-23T12:43:10;100922.69;;;9.20;83.13
46394;BME280;32099;53.588;10.176;2023-02-23T12:45:50;100927.13;;;9.21;82.03
46394;BME280;32099;53.588;10.176;2023-02-23T12:51:29;100928.97;;;9.21;82.27
46394;BME280;32099;53.588;10.176;2023-02-23T12:54:30;100926.94;;;9.15;81.61
46394;BME280;32099;53.588;10.176;2023-02-23T12:57:01;100926.09;;;9.14;82.83
46394;BME280;32099;53.588;10.176;2023-02-23T13:11:39;100923.03;;;9.09;83.40
46394;BME280;32099;53.588;10.176;2023-02-23T13:14:26;100923.03;;;9.17;83.07
46394;BME280;32099;53.588;10.176;2023-02-23T13:17:36;100923.72;;;9.19;82.50
46394;BME280;32099;53.588;10.176;2023-02-23T13:27:58;100892.25;;;9.25;81.55
46394;BME280;32099;53.588;10.176;2023-02-23T13:30:26;100901.44;;;9.24;82.09
46394;BME280;32099;53.588;10.176;2023-02-23T13:32:56;100901.94;;;9.27;82.54
46394;BME280;32099;53.588;10.176;2023-02-23T13:35:24;100906.22;;;9.30;81.87
46394;BME280;32099;53.588;10.176;2023-02-23T13:37:54;100908.56;;;9.25;82.32
46394;BME280;32099;53.588;10.176;2023-02-23T13:40:30;100905.69;;;9.26;82.38
46394;BME280;32099;53.588;10.176;2023-02-23T13:51:04;100901.44;;;9.16;81.88
46394;BME280;32099;53.588;10.176;2023-02-23T13:53:39;100900.06;;;9.11;82.54
46394;BME280;32099;53.588;10.176;2023-02-23T13:56:17;100902.28;;;9.16;82.38
46394;BME280;32099;53.588;10.176;2023-02-23T13:58:47;100900.25;;;9.18;82.28
46394;BME280;32099;53.588;10.176;2023-02-23T14:01:21;100906.56;;;9.19;81.82
46394;BME280;32099;53.588;10.176;2023-02-23T14:03:57;100905.34;;;9.21;82.52
46394;BME280;32099;53.588;10.176;2023-02-23T14:06:25;100897.69;;;9.25;82.41
46394;BME280;32099;53.588;10.176;2023-02-23T14:08:57;100895.84;;;9.25;81.30
46394;BME280;32099;53.588;10.176;2023-02-23T14:11:39;100894.81;;;9.18;80.01
46394;BME280;32099;53.588;10.176;2023-02-23T14:14:10;100896.00;;;9.16;81.46
46394;BME280;32099;53.588;10.176;2023-02-23T14:16:40;100898.91;;;9.14;81.53
46394;BME280;32099;53.588;10.176;2023-02-23T14:19:10;100897.19;;;9.13;81.00
46394;BME280;32099;53.588;10.176;2023-02-23T14:21:44;100890.06;;;9.12;81.30
46394;BME280;32099;53.588;10.176;2023-02-23T14:24:24;100896.34;;;9.13;81.66
46394;BME280;32099;53.588;10.176;2023-02-23T14:29:30;100898.22;;;9.20;81.80
46394;BME280;32099;53.588;10.176;2023-02-23T14:34:46;100902.97;;;9.18;82.12
46394;BME280;32099;53.588;10.176;2023-02-23T14:37:33;100894.13;;;9.16;82.31
46394;BME280;32099;53.588;10.176;2023-02-23T14:42:45;100895.66;;;9.10;82.37
46394;BME280;32099;53.588;10.176;2023-02-23T14:47:51;100892.78;;;9.12;81.82
46394;BME280;32099;53.588;10.176;2023-02-23T14:50:24;100899.38;;;9.09;81.18
46394;BME280;32099;53.588;10.176;2023-02-23T14:52:53;100891.59;;;9.06;81.68
46394;BME280;32099;53.588;10.176;2023-02-23T14:55:22;100896.00;;;9.07;81.56